Brantwood, WI (54513)

4:42 AM CST on November 26, 2014 (GMT -0600)
Cummings Maple Acres | Change Station
CLOSE
Current Station
Personal Weather Station
Location: Phillips, WI
Elevation: 1542 ft
Nearby Weather Stations

Elev 1542 ft 45.64 °N, 90.34 °W | Updated 15 seconds ago

Overcast
Overcast
18.2 °F
Feels Like 18 °F
N
0.0
Wind Variable Wind from North
Gusts 0.0 mph

Today
High -- | Low -- °F
--% Chance of Precip.
Yesterday
High -- | Low -- °F
Precip. -- in
7:14 AM 4:20 PM
Waxing Crescent, 18% visible
Pressure 30.08 in
Visibility 10.0 miles
Clouds Overcast 6000 ft
Windchill 18 °F
Dew Point 16 °F
Humidity 92%
Rainfall 0.00 in
Snow Depth Not available.
UV 0 out of 12
Pollen .10 out of 12
Air Quality Not available.
Flu Activity Not available.
METAR KTKV 261035Z AUTO 00000KT 10SM OVC060 M10/M11 A3008 RMK AO2 T10961108

More Conditions Fewer Conditions

Pressure 30.08 in
Visibility 10.0 miles
Clouds Overcast 6000 ft
Windchill 18 °F
Dew Point 16 °F
Humidity 92%
Rainfall 0.00 in
Snow Depth Not available.
UV 0 out of 12
Pollen .10 out of 12
Air Quality Not available.
Flu Activity Not available.
METAR KTKV 261035Z AUTO 00000KT 10SM OVC060 M10/M11 A3008 RMK AO2 T10961108

More Conditions Fewer Conditions

10-Day Weather Forecast

Almanac

Astronomy

Nov. 26, 2014 Rise Set
Actual Time
Civil Twilight
Nautical Twilight
Astronomical Twilight
Moon
Length of Visible Light
Length of Day
Tomorrow will be .
, % of the Moon is Illuminated

Today's Extremes

State Highs State Lows

Community

WunderPhotos

Upload Photos

1,773,708 photos uploaded!

WunderBlogs® & News

Nearby

Air Quality

  Air Quality AQ Index Pollutant
Not available.

Snow Depth

Station Depth Elevation

Earthquake Activity

City Distance Mag. Time & Date
Minimum magnitude displayed is 2.5.

Coastal Water Temperatures

Place Temperature

Nearby Weather Stations